Nearby METAR Reports

 

KBUF - Buffalo/Cheektow, New York, USA
Distance from station: 0 0mi, 0km
Updated: 12/04/2021 4:54am
Overcast
Overcast
 Wind from S
Wind: S 3 mph , 6 km/h
Temperature: 34°F , 1°C
Dew Point: 27°F , -3°C
Humidity: 75%
Barometer: 30.03 inHg , 1016.9 hPa
Clouds: Overcast
Visibility: 10 miles , 16 km
Cloud details: Mostly cloudy 5500 ft
Overcast 6500 ft
2021/12/04 09:54 KBUF 040954Z 19003KT 10SM BKN055 OVC065 01/M03 A3003 RMK AO2 SLP178 T00111033
KIAG - Niagara Falls, New York, USA
Distance from station: NW 16mi, 26km
Updated: 12/04/2021 4:53am
Overcast
Overcast
 Wind from S
Wind: S 7 mph , 11 km/h
Temperature: 36°F , 2°C
Wind Chill: 30°F , -1°C
Dew Point: 27°F , -3°C
Humidity: 70%
Barometer: 30.03 inHg , 1016.9 hPa
Clouds: Overcast
Visibility: 10 miles , 16 km
Cloud details: Overcast 6000 ft
2021/12/04 09:53 KIAG 040953Z AUTO 18006KT 10SM OVC060 02/M03 A3003 RMK AO2 SLP181 T00221033
 
CWPC - Port Colborne(Au, Ontario, Canada
Distance from station: W 27mi, 43km
Updated: 12/04/2021 5:00am

 Wind from WSW
Wind: WSW 7 mph , 11 km/h
Temperature: 36°F , 2°C
Wind Chill: 30°F , -1°C
Dew Point: 27°F , -3°C
Humidity: 70%
2021/12/04 10:00 CWPC 041000Z AUTO 25006KT 02/M03 RMK AO1 SLP183 T00151026 58012
CYSN - St. Catharines A, Ontario, Canada
Distance from station: NW 29mi, 46km
Updated: 12/03/2021 9:00pm
NOT Current
Mostly cloudy
Mostly cloudy
 Wind from NE
Wind: NE 2 mph , 4 km/h
Temperature: 34°F , 1°C
Dew Point: 28°F , -2°C
Humidity: 81%
Barometer: 30.06 inHg , 1017.9 hPa
Clouds: Mostly cloudy
Visibility: 15 miles , 24 km
Cloud details: Mostly cloudy 3500 ft
2021/12/04 02:00 CYSN 040200Z 04002KT 15SM BKN035 01/M02 A3006 RMK SC7 LAST STFD OBS/NEXT 041200 UTC SLP185
 
CWWZ - Port Weller (mar, Ontario, Canada
Distance from station: NW 33mi, 53km
Updated: 12/04/2021 5:00am

 Wind from S
Wind: S 10 mph , 17 km/h
Temperature: 36°F , 2°C
Wind Chill: 29°F , -2°C
Dew Point: 28°F , -2°C
Humidity: 75%
2021/12/04 10:00 CWWZ 041000Z AUTO 17009KT 02/M02 RMK AO1 SLP177 T00231016 58012
CXVN - Vineland (au8), Ontario, Canada
Distance from station: WNW 38mi, 61km
Updated: 12/04/2021 5:00am

 Wind from S
Wind: S 3 mph , 6 km/h
Temperature: 34°F , 1°C
Dew Point: 28°F , -2°C
Humidity: 81%
2021/12/04 10:00 CXVN 041000Z AUTO 19003KT 01/M02 RMK AO1 SLP172 T00141015 58012
 
KDKK - Dunkirk, New York, USA
Distance from station: SW 41mi, 66km
Updated: 12/04/2021 5:24am
Overcast
Overcast
 Wind from calm
Wind: Calm
Temperature: 37°F , 3°C
Dew Point: 32°F , 0°C
Humidity: 81%
Barometer: 30.04 inHg , 1017.3 hPa
Clouds: Overcast
Visibility: 10 miles , 16 km
Cloud details: Mostly cloudy 2600 ft
Mostly cloudy 3100 ft
Overcast 5000 ft
2021/12/04 10:24 KDKK 041024Z AUTO 00000KT 10SM BKN026 BKN031 OVC050 03/00 A3004 RMK AO2 T00280000
KOLE - Olean, New York, USA
Distance from station: SSE 52mi, 83km
Updated: 10/17/2021 12:01am
NOT Current
Overcast
Overcast
 Wind from calm
Wind: Calm
Temperature: 45°F , 7°C
Dew Point: 45°F , 7°C
Humidity: 100%
Barometer: 29.86 inHg , 1011.2 hPa
Clouds: Overcast
Visibility: 10 miles , 16 km
Cloud details: Partly cloudy 1800 ft
Mostly cloudy 5500 ft
Overcast 6500 ft
2021/10/17 04:01 KOLE 170401Z 00000KT 10SM SCT018 BKN055 OVC065 07/07 A2986
 
KROC - Rochester, New York, USA
Distance from station: ENE 55mi, 88km
Updated: 12/04/2021 4:54am
Overcast
Overcast
 Wind from S
Wind: S 3 mph , 6 km/h
Temperature: 32°F , 0°C
Dew Point: 27°F , -3°C
Humidity: 80%
Barometer: 30.04 inHg , 1017.3 hPa
Clouds: Overcast
Visibility: 10 miles , 16 km
Cloud details: Overcast 5500 ft
2021/12/04 09:54 KROC 040954Z 19003KT 10SM OVC055 00/M03 A3004 RMK AO2 SLP183 T00001033
KDSV - Dansville, New York, USA
Distance from station: ESE 57mi, 92km
Updated: 12/04/2021 4:54am
Overcast
Overcast
 Wind from calm
Wind: Calm
Temperature: 34°F , 1°C
Dew Point: 27°F , -3°C
Humidity: 75%
Barometer: 30.05 inHg , 1017.6 hPa
Clouds: Overcast
Visibility: 10 miles , 16 km
Cloud details: Overcast 2700 ft
2021/12/04 09:54 KDSV 040954Z AUTO 00000KT 10SM OVC027 01/M03 A3005 RMK AO2 SLP190 T00061033
 
CWWB - Burlington Piers, Ontario, Canada
Distance from station: WNW 59mi, 94km
Updated: 12/04/2021 5:00am

 Wind from S
Wind: S 6 mph , 9 km/h
Temperature: 36°F , 2°C
Wind Chill: 31°F , -1°C
Dew Point: 28°F , -2°C
Humidity: 75%
2021/12/04 10:00 CWWB 041000Z AUTO 19005KT 02/M02 RMK AO1 SLP174 T00231019 58013
CYTZ - Toronto Il Vor, Ontario, Canada
Distance from station: NW 59mi, 95km
Updated: 12/04/2021 5:18am
Overcast
Overcast
 Wind from SSW
Wind: SSW 14 mph , 22 km/h
Temperature: 37°F , 3°C
Wind Chill: 28°F , -2°C
Dew Point: 30°F , -1°C
Humidity: 75%
Barometer: 30.01 inHg , 1016.3 hPa
Clouds: Overcast
Visibility: 9 miles , 14 km
Cloud details: Partly cloudy 2100 ft
Overcast 2800 ft
2021/12/04 10:18 CYTZ 041018Z AUTO 20012KT 9SM SCT021 OVC028 03/M01 A3001 RMK SLP169
 
CXTO - Toronto City, Ontario, Canada
Distance from station: NW 61mi, 98km
Updated: 12/04/2021 5:00am

 
Temperature: 36°F , 2°C
Dew Point: 28°F , -2°C
Humidity: 75%
2021/12/04 10:00 CXTO 041000Z AUTO 02/M02 RMK AO1 SLP165 T00231018 58017
KJHW - Jamestown, New York, USA
Distance from station: SSW 62mi, 99km
Updated: 12/04/2021 5:11am
Overcast
Overcast
 Wind from SSW
Wind: SSW 5 mph , 7 km/h
Temperature: 32°F , 0°C
Wind Chill: 27°F , -3°C
Dew Point: 30°F , -1°C
Humidity: 93%
Barometer: 30.01 inHg , 1016.3 hPa
Clouds: Overcast
Visibility: 7 miles , 11 km
Cloud details: Overcast 500 ft
2021/12/04 10:11 KJHW 041011Z AUTO 20004KT 7SM UP OVC005 00/M01 A3001 RMK AO2 UPB01SNE01 P0000 FZRANO
 
CYHM - Hamilton Airport, Ontario, Canada
Distance from station: WNW 63mi, 101km
Updated: 12/04/2021 5:00am
Overcast
Overcast
 Wind from SSW
Wind: SSW 7 mph , 11 km/h
Temperature: 32°F , 0°C
Wind Chill: 25°F , -4°C
Dew Point: 28°F , -2°C
Humidity: 87%
Barometer: 30.01 inHg , 1016.3 hPa
Clouds: Overcast
Visibility: 15 miles , 24 km
Cloud details: Overcast 4700 ft
2021/12/04 10:00 CYHM 041000Z 21006KT 15SM OVC047 M00/M02 A3001 RMK SC8 SLP174
CXHM - Hamilton Rbg Cs, Ontario, Canada
Distance from station: WNW 64mi, 102km
Updated: 12/04/2021 5:00am

 Wind from WSW
Wind: WSW 1 mph , 2 km/h
Temperature: 34°F , 1°C
Dew Point: 28°F , -2°C
Humidity: 81%
2021/12/04 10:00 CXHM 041000Z AUTO 25001KT 01/M02 RMK AO1 SLP175 T00071017 58013
 
CYYZ - Toronto/Pearson, Ontario, Canada
Distance from station: NW 67mi, 108km
Updated: 12/04/2021 5:00am
Overcast
Overcast
 Wind from SSW
Wind: SSW 6 mph , 9 km/h
Temperature: 34°F , 1°C
Wind Chill: 29°F , -2°C
Dew Point: 27°F , -3°C
Humidity: 75%
Barometer: 30.00 inHg , 1015.9 hPa
Clouds: Overcast
Visibility: 15 miles , 24 km
Cloud details: Few Clouds 2400 ft
Overcast 5400 ft
2021/12/04 10:00 CYYZ 041000Z 20005KT 15SM FEW024 OVC054 01/M03 A3000 RMK SC2SC6 SLP167
CYOO - Oshawa, Ontario, Canada
Distance from station: N 68mi, 110km
Updated: 12/04/2021 5:34am
Overcast
Overcast
 Wind from varies
Wind: varies 2 mph , 4 km/h
Temperature: 30°F , -1°C
Dew Point: 25°F , -4°C
Humidity: 80%
Barometer: 29.99 inHg , 1015.6 hPa
Clouds: Overcast
Visibility: 9 miles , 14 km
Cloud details: Mostly cloudy 2100 ft
Overcast 2700 ft
2021/12/04 10:34 CYOO 041034Z AUTO VRB02KT 9SM BKN021 OVC027 M01/M04 A2999 RMK SLP163
 
KELZ - Wellsville, New York, USA
Distance from station: SE 69mi, 111km
Updated: 12/04/2021 4:56am
Overcast
Overcast
 Wind from WSW
Wind: WSW 3 mph , 6 km/h
Temperature: 30°F , -1°C
Dew Point: 28°F , -2°C
Humidity: 93%
Barometer: 30.00 inHg , 1015.9 hPa
Clouds: Overcast
Visibility: 10 miles , 16 km
Cloud details: Overcast 1700 ft
2021/12/04 09:56 KELZ 040956Z AUTO 25003KT 10SM OVC017 M01/M02 A3000 RMK AO2 SLP181 T10061017
CWNC - Cobourg (mars), Ontario, Canada
Distance from station: NNE 76mi, 122km
Updated: 12/04/2021 5:00am

 Wind from E
Wind: E 2 mph , 4 km/h
Temperature: 30°F , -1°C
Dew Point: 21°F , -6°C
Humidity: 69%
2021/12/04 10:00 CWNC 041000Z AUTO 08002KT M01/M06 RMK AO1 SLP166 T10141058 58013